Friday, December 19, 2014, 7:47 PM EST

KSBY, Salisbury-wicomico Cty Reg

Location: Salisbury, MD, United States Lat: 38.333
Local Time: 7:47 PM EST ( 0:47 GMT) Lon: -75.5
Time Zone: US/Eastern Elev: 52 ft

Show me the last for .
Show Decoded

2014-12-19 18:54 METAR KSBY 192354Z 25004KT 10SM CLR 02/M04 A3019 RMK AO2 SLP225 T00171044 10056
                 20017 51018 =
2014-12-19 17:54 METAR KSBY 192254Z 29005KT 10SM FEW037 03/M04 A3017 RMK AO2 SLP220 T00331044 =
2014-12-19 16:54 METAR KSBY 192154Z 30010KT 10SM OVC034 04/M04 A3017 RMK AO2 SLP218 T00441044 =
2014-12-19 15:54 METAR KSBY 192054Z 31010KT 10SM OVC032 04/M04 A3013 RMK AO2 SLP207 T00441039
                 53010 =
2014-12-19 14:54 METAR KSBY 191954Z 30010KT 10SM OVC032 04/M04 A3012 RMK AO2 SLP202 T00441039 =
2014-12-19 13:54 METAR KSBY 191854Z 30012G17KT 10SM OVC031 04/M04 A3010 RMK AO2 SLP196 T00441039
                 =
2014-12-19 12:54 METAR KSBY 191754Z 29012KT 10SM OVC034 06/M03 A3011 RMK AO2 SLP197 T00561033
                 10056 20017 58014 =
2014-12-19 11:54 METAR KSBY 191654Z 31011KT 10SM BKN030 OVC040 04/M03 A3013 RMK AO2 SLP204
                 T00391033 =
2014-12-19 10:54 METAR KSBY 191554Z 31008KT 10SM OVC029 04/M03 A3015 RMK AO2 SLP213 T00391033 =
2014-12-19 09:54 METAR KSBY 191454Z 31011G20KT 10SM OVC036 04/M04 A3015 RMK AO2 SLP211 T00441039
                 51014 =
2014-12-19 08:54 METAR KSBY 191354Z 30009KT 10SM OVC036 04/M03 A3013 RMK AO2 SLP206 T00391033 =
2014-12-19 07:54 METAR KSBY 191254Z 28006KT 10SM OVC032 02/M04 A3013 RMK AO2 SLP204 T00221039 =
2014-12-19 06:54 METAR KSBY 191154Z 30007KT 10SM OVC100 02/M04 A3011 RMK AO2 SLP197 T00221039
                 10033 20017 53009 =
2014-12-19 05:54 METAR KSBY 191054Z 30008KT 10SM FEW100 02/M04 A3009 RMK AO2 SLP192 T00221039 =
2014-12-19 04:54 METAR KSBY 190954Z AUTO 30007KT 10SM OVC120 03/M04 A3008 RMK AO2 SLP189
                 T00281039 =
2014-12-19 03:54 METAR KSBY 190854Z AUTO 30008KT 10SM OVC110 03/M04 A3008 RMK AO2 SLP189
                 T00331039 58001 =
2014-12-19 02:54 METAR KSBY 190754Z AUTO 30007KT 10SM OVC100 03/M04 A3010 RMK AO2 SLP194
                 T00331039 =
2014-12-19 01:54 METAR KSBY 190654Z AUTO 29003KT 10SM OVC100 03/M03 A3008 RMK AO2 SLP190
                 T00281033 =
2014-12-19 00:54 METAR KSBY 190554Z AUTO 27004KT 10SM OVC100 02/M03 A3008 RMK AO2 SLP190
                 T00221033 10033 20022 56002 =
2014-12-18 23:54 METAR KSBY 190454Z AUTO 28004KT 10SM BKN110 02/M03 A3008 RMK AO2 SLP190
                 T00221033 400670011 =
2014-12-18 22:54 METAR KSBY 190354Z AUTO 00000KT 10SM FEW120 03/M04 A3008 =
2014-12-18 21:54 METAR KSBY 190254Z 28004KT 10SM FEW120 03/M04 A3009 RMK AO2 SLP192 T00331039
                 58001 =
2014-12-18 20:54 METAR KSBY 190154Z 32005KT 10SM CLR 03/M04 A3009 =
2014-12-18 19:54 METAR KSBY 190054Z 31006KT 10SM CLR 03/M04 A3010 RMK AO2 SLP195 T00331039 =

Support USWX by starting your Amazon purchase here.